createdAt,value
2022-12-02T00:01:15.050Z,14.82
2022-12-02T00:03:41.879Z,24.06
2022-12-02T00:06:34.892Z,18.79
2022-12-02T00:09:29.882Z,18.54
2022-12-02T00:11:57.500Z,17.17
2022-12-02T00:14:30.170Z,15.49
2022-12-02T00:16:57.137Z,14.67
2022-12-02T00:19:24.386Z,14.69
2022-12-02T00:21:52.081Z,14.66
2022-12-02T00:24:19.589Z,15.14
2022-12-02T00:26:46.146Z,15.27
2022-12-02T00:29:12.722Z,15.49
2022-12-02T00:31:39.383Z,15.58
2022-12-02T00:34:06.201Z,16.13
2022-12-02T00:36:33.682Z,16.08
2022-12-02T00:39:00.189Z,15.66
2022-12-02T00:41:26.894Z,16.43
2022-12-02T00:43:53.424Z,15.88
2022-12-02T00:46:19.961Z,16.32
2022-12-02T00:48:46.516Z,16.45
2022-12-02T00:51:12.982Z,16.81
2022-12-02T00:53:39.441Z,17.20
2022-12-02T00:56:06.132Z,17.59
2022-12-02T00:58:32.626Z,16.98
2022-12-02T01:00:59.165Z,16.67
2022-12-02T01:03:25.708Z,16.77
2022-12-02T01:05:52.196Z,17.30
2022-12-02T01:08:18.680Z,17.27
2022-12-02T01:10:47.261Z,17.82
2022-12-02T01:13:13.728Z,17.47
2022-12-02T01:15:40.194Z,17.02
2022-12-02T01:18:06.741Z,17.29
2022-12-02T01:20:33.213Z,16.78
2022-12-02T01:22:59.653Z,17.50
2022-12-02T01:25:26.107Z,18.15
2022-12-02T01:27:52.613Z,18.27
2022-12-02T01:30:19.232Z,18.15
2022-12-02T01:32:45.703Z,18.60
2022-12-02T01:35:12.309Z,18.61
2022-12-02T01:37:38.799Z,18.77
2022-12-02T01:40:07.678Z,18.99
2022-12-02T01:42:34.701Z,18.61
2022-12-02T01:45:01.497Z,18.45
2022-12-02T01:47:28.520Z,18.36
2022-12-02T01:49:55.648Z,19.27
2022-12-02T01:52:23.162Z,18.85
2022-12-02T01:54:51.876Z,19.52
2022-12-02T01:57:26.296Z,19.68
2022-12-02T01:59:53.149Z,20.00
2022-12-02T02:02:28.237Z,19.95
2022-12-02T02:04:59.544Z,19.93
2022-12-02T02:07:27.033Z,20.46
2022-12-02T02:09:55.170Z,20.75
2022-12-02T02:12:23.813Z,20.16
2022-12-02T02:14:51.018Z,20.27
2022-12-02T02:17:18.074Z,20.32
2022-12-02T02:19:45.018Z,19.96
2022-12-02T02:22:29.613Z,20.89
2022-12-02T02:24:56.091Z,20.24
2022-12-02T02:27:23.456Z,20.82
2022-12-02T02:29:50.042Z,20.75
2022-12-02T02:32:16.578Z,20.64
2022-12-02T02:34:43.264Z,21.36
2022-12-02T02:37:09.864Z,21.20
2022-12-02T02:39:36.409Z,21.80
2022-12-02T02:42:03.222Z,21.51
2022-12-02T02:44:30.494Z,22.50
2022-12-02T02:46:58.013Z,21.69
2022-12-02T02:49:25.334Z,22.28
2022-12-02T02:51:52.311Z,22.07
2022-12-02T02:54:18.844Z,21.92
2022-12-02T02:56:45.412Z,22.33
2022-12-02T02:59:16.221Z,21.90
2022-12-02T03:01:46.966Z,22.00
2022-12-02T03:04:17.386Z,21.77
2022-12-02T03:06:46.468Z,22.34
2022-12-02T03:09:15.934Z,22.10
2022-12-02T03:11:47.149Z,22.97
2022-12-02T03:14:17.229Z,22.65
2022-12-02T03:16:45.950Z,23.48
2022-12-02T03:19:12.840Z,22.70
2022-12-02T03:21:39.756Z,23.48
2022-12-02T03:24:07.106Z,23.24
2022-12-02T03:26:35.105Z,23.40
2022-12-02T03:29:04.590Z,23.02
2022-12-02T03:31:34.575Z,23.47
2022-12-02T03:34:01.413Z,23.67
2022-12-02T03:36:28.836Z,22.90
2022-12-02T03:38:56.592Z,23.59
2022-12-02T03:41:32.095Z,23.54
2022-12-02T03:43:59.511Z,23.53
2022-12-02T03:46:29.176Z,23.74
2022-12-02T03:48:57.859Z,23.25
2022-12-02T03:51:25.818Z,23.31
2022-12-02T03:53:52.700Z,23.29
2022-12-02T03:56:19.209Z,23.07
2022-12-02T03:58:50.327Z,22.73
2022-12-02T04:01:18.200Z,24.13
2022-12-02T04:03:45.087Z,23.59
2022-12-02T04:06:12.841Z,23.19
2022-12-02T04:08:39.636Z,22.99
2022-12-02T04:11:06.795Z,22.77
2022-12-02T04:13:53.243Z,22.87
2022-12-02T04:16:38.304Z,23.48
2022-12-02T04:19:04.762Z,22.62
2022-12-02T04:21:31.248Z,22.94
2022-12-02T04:23:57.734Z,22.53
2022-12-02T04:26:24.213Z,23.51
2022-12-02T04:28:50.688Z,23.38
2022-12-02T04:31:17.169Z,22.49
2022-12-02T04:33:43.668Z,23.77
2022-12-02T04:36:10.127Z,25.38
2022-12-02T04:38:36.616Z,25.32
2022-12-02T04:41:03.059Z,23.96
2022-12-02T04:43:29.496Z,23.99
2022-12-02T04:45:55.952Z,23.83
2022-12-02T04:48:22.423Z,23.35
2022-12-02T04:50:49.094Z,23.50
2022-12-02T04:53:15.571Z,23.40
2022-12-02T04:55:42.038Z,23.91
2022-12-02T04:58:08.504Z,23.21
2022-12-02T05:00:34.964Z,23.07
2022-12-02T05:03:01.497Z,23.65
2022-12-02T05:05:28.009Z,23.79
2022-12-02T05:07:54.503Z,22.88
2022-12-02T05:10:21.189Z,24.10
2022-12-02T05:12:47.658Z,23.62
2022-12-02T05:15:14.128Z,23.01
2022-12-02T05:17:42.363Z,23.41
2022-12-02T05:20:09.763Z,23.61
2022-12-02T05:22:36.202Z,23.18
2022-12-02T05:25:02.728Z,22.98
2022-12-02T05:27:33.838Z,23.09
2022-12-02T05:30:02.104Z,22.90
2022-12-02T05:32:28.549Z,23.73
2022-12-02T05:34:55.016Z,23.72
2022-12-02T05:37:21.517Z,23.11
2022-12-02T05:39:48.997Z,22.97
2022-12-02T05:42:15.519Z,22.68
2022-12-02T05:44:42.228Z,22.80
2022-12-02T05:47:17.387Z,22.67
2022-12-02T05:49:46.134Z,22.61
2022-12-02T05:52:23.718Z,23.21
2022-12-02T05:54:54.321Z,22.63
2022-12-02T05:57:28.386Z,23.05
2022-12-02T06:00:19.130Z,23.21
2022-12-02T06:03:00.681Z,22.81
2022-12-02T06:05:31.064Z,23.69
2022-12-02T06:08:25.596Z,22.69
2022-12-02T06:11:00.089Z,22.98
2022-12-02T06:13:31.129Z,23.06
2022-12-02T06:16:00.320Z,23.17
2022-12-02T06:18:34.549Z,22.34
2022-12-02T06:21:04.421Z,22.52
2022-12-02T06:23:32.937Z,22.47
2022-12-02T06:26:00.267Z,22.46
2022-12-02T06:28:31.525Z,22.04
2022-12-02T06:31:17.628Z,22.11
2022-12-02T06:33:48.238Z,21.98
2022-12-02T06:36:34.709Z,21.95
2022-12-02T06:39:06.466Z,22.25
2022-12-02T06:41:37.310Z,22.31
2022-12-02T06:44:18.964Z,23.06
2022-12-02T06:46:46.431Z,22.04
2022-12-02T06:49:20.460Z,21.51
2022-12-02T06:52:00.280Z,21.49
2022-12-02T06:54:30.577Z,22.18
2022-12-02T06:57:00.867Z,21.90
2022-12-02T06:59:27.853Z,22.36
2022-12-02T07:01:57.294Z,22.35
2022-12-02T07:04:26.709Z,22.44
2022-12-02T07:06:59.670Z,21.51
2022-12-02T07:09:38.538Z,21.57
2022-12-02T07:12:23.848Z,24.80
2022-12-02T07:14:59.573Z,22.51
2022-12-02T07:17:30.517Z,22.42
2022-12-02T07:20:32.281Z,22.57
2022-12-02T07:23:02.442Z,24.95
2022-12-02T07:25:35.903Z,24.97
2022-12-02T07:28:15.216Z,23.83
2022-12-02T07:30:42.650Z,22.06
2022-12-02T07:33:09.170Z,21.18
2022-12-02T07:35:35.647Z,22.53
2022-12-02T07:38:02.142Z,22.10
2022-12-02T07:40:28.694Z,23.65
2022-12-02T07:42:55.344Z,23.26
2022-12-02T07:45:21.833Z,22.39
2022-12-02T07:47:48.339Z,22.57
2022-12-02T07:50:16.564Z,22.36
2022-12-02T07:52:43.033Z,23.13
2022-12-02T07:55:09.689Z,23.66
2022-12-02T07:57:36.156Z,23.47
2022-12-02T08:00:05.763Z,25.40
2022-12-02T08:02:32.256Z,25.58
2022-12-02T08:04:58.744Z,22.97
2022-12-02T08:07:25.310Z,22.93
2022-12-02T08:09:51.824Z,22.75
2022-12-02T08:12:18.289Z,23.06
2022-12-02T08:14:44.731Z,22.45
2022-12-02T08:17:11.244Z,21.93
2022-12-02T08:19:37.743Z,22.05
2022-12-02T08:22:04.211Z,22.28
2022-12-02T08:24:30.686Z,22.90
2022-12-02T08:26:57.165Z,23.19
2022-12-02T08:29:23.605Z,22.37
2022-12-02T08:31:50.052Z,23.06
2022-12-02T08:34:16.534Z,23.12
2022-12-02T08:36:43.190Z,23.82
2022-12-02T08:39:09.651Z,23.92
2022-12-02T08:41:37.763Z,24.00
2022-12-02T08:44:06.102Z,23.07
2022-12-02T08:46:33.883Z,22.88
2022-12-02T08:49:00.522Z,23.07
2022-12-02T08:51:27.143Z,21.09
2022-12-02T08:53:53.860Z,22.51
2022-12-02T08:56:20.374Z,23.51
2022-12-02T08:58:46.829Z,23.12
2022-12-02T09:01:13.357Z,23.48
2022-12-02T09:03:39.839Z,23.83
2022-12-02T09:06:06.383Z,22.27
2022-12-02T09:08:33.032Z,23.47
2022-12-02T09:10:59.886Z,22.41
2022-12-02T09:13:26.453Z,22.76
2022-12-02T09:15:52.967Z,24.01
2022-12-02T09:18:19.525Z,23.69
2022-12-02T09:20:46.020Z,23.29
2022-12-02T09:23:12.474Z,23.21
2022-12-02T09:25:38.923Z,23.75
2022-12-02T09:28:05.405Z,23.93
2022-12-02T09:30:31.859Z,23.70
2022-12-02T09:32:58.326Z,24.61
2022-12-02T09:35:24.879Z,23.93
2022-12-02T09:37:51.398Z,24.82
2022-12-02T09:40:18.757Z,24.28
2022-12-02T09:42:45.246Z,24.25
2022-12-02T09:45:13.140Z,23.49
2022-12-02T09:47:40.563Z,23.97
2022-12-02T09:50:07.825Z,24.91
2022-12-02T09:52:34.484Z,23.90
2022-12-02T09:55:02.246Z,24.80
2022-12-02T09:57:37.030Z,24.50
2022-12-02T10:00:33.085Z,24.91
2022-12-02T10:02:59.650Z,25.14
2022-12-02T10:05:29.158Z,25.82
2022-12-02T10:07:58.696Z,25.77
2022-12-02T10:10:37.089Z,25.59
2022-12-02T10:13:07.880Z,24.58
2022-12-02T10:15:34.895Z,24.59
2022-12-02T10:18:12.664Z,23.91
2022-12-02T10:20:39.133Z,24.48
2022-12-02T10:23:15.894Z,24.30
2022-12-02T10:25:45.781Z,25.19
2022-12-02T10:28:30.857Z,24.97
2022-12-02T10:31:08.323Z,25.07
2022-12-02T10:33:38.212Z,24.87
2022-12-02T10:36:05.424Z,24.13
2022-12-02T10:38:43.321Z,23.98
2022-12-02T10:41:20.215Z,24.61
2022-12-02T10:43:52.684Z,24.55
2022-12-02T10:46:21.209Z,24.74
2022-12-02T10:48:48.720Z,24.03
2022-12-02T10:51:17.269Z,23.53
2022-12-02T10:53:47.699Z,24.79
2022-12-02T10:56:20.830Z,24.32
2022-12-02T10:58:47.689Z,24.00
2022-12-02T11:01:14.265Z,22.66
2022-12-02T11:03:40.809Z,23.33
2022-12-02T11:06:16.471Z,23.05
2022-12-02T11:08:43.468Z,22.95
2022-12-02T11:11:14.313Z,23.58
2022-12-02T11:13:59.256Z,23.84
2022-12-02T11:16:28.821Z,23.52
2022-12-02T11:19:08.913Z,23.50
2022-12-02T11:21:37.044Z,24.13
2022-12-02T11:24:22.188Z,23.75
2022-12-02T11:27:00.964Z,21.89
2022-12-02T11:29:28.588Z,23.48
2022-12-02T11:32:15.847Z,23.64
2022-12-02T11:35:16.273Z,23.08
2022-12-02T11:37:41.461Z,22.98
2022-12-02T11:40:10.881Z,23.25
2022-12-02T11:42:39.576Z,22.99
2022-12-02T11:45:33.954Z,22.04
2022-12-02T11:48:02.478Z,22.01
2022-12-02T11:50:28.875Z,22.22
2022-12-02T11:53:13.142Z,22.81
2022-12-02T11:55:59.974Z,22.63
2022-12-02T11:58:33.564Z,23.04
2022-12-02T12:01:13.452Z,21.77
2022-12-02T12:03:46.043Z,22.13
2022-12-02T12:06:14.253Z,21.59
2022-12-02T12:08:46.936Z,22.56
2022-12-02T12:11:25.270Z,23.23
2022-12-02T12:14:19.687Z,22.05
2022-12-02T12:16:51.973Z,21.60
2022-12-02T12:19:18.493Z,22.86
2022-12-02T12:21:50.094Z,22.62
2022-12-02T12:24:16.541Z,22.53
2022-12-02T12:26:45.640Z,22.26
2022-12-02T12:29:12.953Z,23.46
2022-12-02T12:31:39.617Z,24.17
2022-12-02T12:34:07.841Z,24.21
2022-12-02T12:36:35.696Z,24.58
2022-12-02T12:39:03.332Z,23.38
2022-12-02T12:41:59.220Z,23.55
2022-12-02T12:44:16.393Z,22.64
2022-12-02T12:46:42.929Z,23.01
2022-12-02T12:49:09.868Z,22.48
2022-12-02T12:51:36.533Z,22.26
2022-12-02T12:54:03.041Z,21.43
2022-12-02T12:56:29.494Z,22.21
2022-12-02T12:58:55.948Z,22.50
2022-12-02T13:01:25.018Z,22.42
2022-12-02T13:03:51.819Z,23.02
2022-12-02T13:06:18.348Z,23.68
2022-12-02T13:08:44.825Z,21.99
2022-12-02T13:11:11.314Z,22.29
2022-12-02T13:13:37.859Z,22.42
2022-12-02T13:16:04.474Z,21.88
2022-12-02T13:18:31.009Z,22.54
2022-12-02T13:20:57.496Z,21.77
2022-12-02T13:23:23.970Z,20.76
2022-12-02T13:25:50.447Z,20.95
2022-12-02T13:28:16.936Z,21.68
2022-12-02T13:30:43.429Z,21.58
2022-12-02T13:33:10.180Z,21.62
2022-12-02T13:35:36.749Z,21.84
2022-12-02T13:38:03.188Z,22.22
2022-12-02T13:40:29.658Z,23.05
2022-12-02T13:42:56.144Z,21.74
2022-12-02T13:45:22.630Z,22.64
2022-12-02T13:47:49.086Z,22.47
2022-12-02T13:50:15.589Z,22.05
2022-12-02T13:52:42.267Z,22.16
2022-12-02T13:55:09.070Z,22.74
2022-12-02T13:57:35.554Z,24.00
2022-12-02T14:00:02.129Z,22.81
2022-12-02T14:02:28.758Z,22.77
2022-12-02T14:04:55.259Z,23.91
2022-12-02T14:07:21.729Z,20.87
2022-12-02T14:09:48.249Z,22.44
2022-12-02T14:12:14.705Z,22.68
2022-12-02T14:14:41.180Z,21.35
2022-12-02T14:17:07.639Z,21.13
2022-12-02T14:19:34.128Z,20.80
2022-12-02T14:22:00.615Z,21.32
2022-12-02T14:24:27.058Z,20.92
2022-12-02T14:26:53.555Z,21.37
2022-12-02T14:29:20.024Z,20.26
2022-12-02T14:31:46.524Z,20.51
2022-12-02T14:34:14.058Z,20.85
2022-12-02T14:36:42.777Z,21.31
2022-12-02T14:39:09.506Z,20.41
2022-12-02T14:41:35.984Z,20.95
2022-12-02T14:44:02.466Z,20.86
2022-12-02T14:46:28.941Z,21.80
2022-12-02T14:49:07.087Z,21.05
2022-12-02T14:51:42.096Z,20.48
2022-12-02T14:54:08.569Z,20.38
2022-12-02T14:56:35.089Z,21.48
2022-12-02T14:59:01.588Z,21.46
2022-12-02T15:01:28.111Z,21.50
2022-12-02T15:03:54.629Z,21.74
2022-12-02T15:06:21.111Z,22.77
2022-12-02T15:08:47.745Z,23.29
2022-12-02T15:11:14.204Z,23.16
2022-12-02T15:13:40.643Z,23.53
2022-12-02T15:16:07.192Z,22.38
2022-12-02T15:18:33.752Z,21.42
2022-12-02T15:21:00.251Z,20.94
2022-12-02T15:23:26.736Z,21.44
2022-12-02T15:25:54.537Z,22.05
2022-12-02T15:28:21.011Z,21.38
2022-12-02T15:30:47.489Z,21.83
2022-12-02T15:33:14.009Z,21.28
2022-12-02T15:35:40.467Z,20.67
2022-12-02T15:38:07.025Z,20.98
2022-12-02T15:40:33.504Z,20.54
2022-12-02T15:42:59.982Z,21.03
2022-12-02T15:45:26.583Z,20.47
2022-12-02T15:47:53.484Z,20.24
2022-12-02T15:50:19.944Z,20.23
2022-12-02T15:52:46.436Z,19.45
2022-12-02T15:55:12.968Z,19.49
2022-12-02T15:57:40.265Z,19.41
2022-12-02T16:00:07.797Z,19.78
2022-12-02T16:02:34.438Z,20.13
2022-12-02T16:05:01.024Z,20.55
2022-12-02T16:07:27.655Z,20.30
2022-12-02T16:09:54.557Z,21.18
2022-12-02T16:12:21.360Z,20.73
2022-12-02T16:14:53.567Z,20.87
2022-12-02T16:17:21.644Z,20.71
2022-12-02T16:19:48.243Z,21.50
2022-12-02T16:22:14.934Z,21.55
2022-12-02T16:24:41.419Z,21.76
2022-12-02T16:27:07.890Z,20.89
2022-12-02T16:29:34.396Z,21.36
2022-12-02T16:32:01.022Z,21.75
2022-12-02T16:34:27.564Z,21.68
2022-12-02T16:36:54.182Z,21.46
2022-12-02T16:39:20.715Z,21.80
2022-12-02T16:41:47.193Z,21.15
2022-12-02T16:44:16.269Z,21.43
2022-12-02T16:46:42.730Z,22.25
2022-12-02T16:49:09.214Z,21.99
2022-12-02T16:51:36.396Z,21.40
2022-12-02T16:54:04.033Z,20.27
2022-12-02T16:56:30.558Z,22.10
2022-12-02T16:58:57.144Z,21.11
2022-12-02T17:01:23.703Z,21.25
2022-12-02T17:03:50.221Z,21.24
2022-12-02T17:06:16.684Z,21.14
2022-12-02T17:08:43.148Z,20.80
2022-12-02T17:11:09.704Z,20.60
2022-12-02T17:13:36.642Z,20.92
2022-12-02T17:16:03.178Z,20.78
2022-12-02T17:18:29.697Z,20.95
2022-12-02T17:20:56.172Z,21.49
2022-12-02T17:23:22.757Z,20.66
2022-12-02T17:25:49.257Z,20.60
2022-12-02T17:28:15.762Z,20.49
2022-12-02T17:30:42.248Z,20.66
2022-12-02T17:33:08.716Z,20.79
2022-12-02T17:35:35.213Z,19.27
2022-12-02T17:38:01.784Z,20.50
2022-12-02T17:40:28.239Z,20.86
2022-12-02T17:42:54.682Z,21.37
2022-12-02T17:45:21.214Z,21.30
2022-12-02T17:47:47.716Z,21.28
2022-12-02T17:50:14.740Z,21.36
2022-12-02T17:52:42.052Z,21.71
2022-12-02T17:55:10.753Z,20.66
2022-12-02T17:57:37.592Z,20.67
2022-12-02T18:00:05.297Z,20.17
2022-12-02T18:02:31.886Z,20.46
2022-12-02T18:04:58.460Z,20.57
2022-12-02T18:07:24.975Z,20.34
2022-12-02T18:09:51.464Z,20.42
2022-12-02T18:12:18.294Z,21.15
2022-12-02T18:14:44.753Z,20.87
2022-12-02T18:17:11.259Z,23.44
2022-12-02T18:19:37.762Z,22.30
2022-12-02T18:22:04.237Z,21.31
2022-12-02T18:24:31.762Z,21.45
2022-12-02T18:26:58.217Z,21.18
2022-12-02T18:29:24.691Z,21.89
2022-12-02T18:31:51.204Z,21.12
2022-12-02T18:34:17.662Z,21.78
2022-12-02T18:36:44.124Z,21.74
2022-12-02T18:39:10.591Z,22.75
2022-12-02T18:41:37.069Z,22.67
2022-12-02T18:44:03.736Z,21.15
2022-12-02T18:46:30.292Z,21.66
2022-12-02T18:48:56.814Z,22.66
2022-12-02T18:51:23.289Z,22.86
2022-12-02T18:53:49.803Z,23.48
2022-12-02T18:56:22.086Z,22.55
2022-12-02T18:58:50.446Z,21.14
2022-12-02T19:01:16.976Z,23.06
2022-12-02T19:03:43.497Z,21.28
2022-12-02T19:06:10.036Z,21.55
2022-12-02T19:08:36.495Z,21.26
2022-12-02T19:11:03.000Z,22.31
2022-12-02T19:13:29.474Z,23.75
2022-12-02T19:15:56.026Z,23.72
2022-12-02T19:18:22.588Z,22.17
2022-12-02T19:20:49.056Z,26.33
2022-12-02T19:23:15.634Z,22.81
2022-12-02T19:25:46.881Z,21.55
2022-12-02T19:28:16.015Z,20.28
2022-12-02T19:30:43.620Z,21.78
2022-12-02T19:33:10.174Z,20.66
2022-12-02T19:35:36.724Z,20.20
2022-12-02T19:38:07.783Z,20.62
2022-12-02T19:40:42.719Z,22.35
2022-12-02T19:43:11.079Z,22.06
2022-12-02T19:45:37.616Z,21.42
2022-12-02T19:48:04.102Z,20.70
2022-12-02T19:50:30.689Z,20.83
2022-12-02T19:52:57.297Z,21.91
2022-12-02T19:55:23.765Z,21.64
2022-12-02T19:57:50.274Z,22.11
2022-12-02T20:00:17.781Z,21.94
2022-12-02T20:02:45.440Z,21.93
2022-12-02T20:05:15.271Z,22.14
2022-12-02T20:07:42.344Z,21.59
2022-12-02T20:10:11.231Z,21.45
2022-12-02T20:12:37.914Z,21.72
2022-12-02T20:15:05.610Z,21.87
2022-12-02T20:17:32.179Z,21.46
2022-12-02T20:19:58.684Z,21.36
2022-12-02T20:22:25.180Z,21.40
2022-12-02T20:24:52.212Z,20.96
2022-12-02T20:27:18.947Z,21.13
2022-12-02T20:29:45.469Z,21.57
2022-12-02T20:32:11.965Z,22.21
2022-12-02T20:34:38.482Z,22.17
2022-12-02T20:37:04.962Z,22.22
2022-12-02T20:39:31.436Z,22.43
2022-12-02T20:41:57.912Z,22.56
2022-12-02T20:44:24.372Z,22.17
2022-12-02T20:46:50.959Z,22.16
2022-12-02T20:49:17.516Z,22.54
2022-12-02T20:51:46.998Z,23.22
2022-12-02T20:54:13.460Z,23.42
2022-12-02T20:56:39.915Z,22.68
2022-12-02T20:59:06.383Z,22.38
2022-12-02T21:01:32.888Z,22.83
2022-12-02T21:03:59.419Z,22.21
2022-12-02T21:06:25.867Z,21.99
2022-12-02T21:08:52.320Z,22.68
2022-12-02T21:11:18.809Z,22.55
2022-12-02T21:13:45.257Z,22.31
2022-12-02T21:16:11.795Z,22.40
2022-12-02T21:18:38.612Z,21.59
2022-12-02T21:21:05.231Z,21.83
2022-12-02T21:23:31.718Z,22.88
2022-12-02T21:25:58.160Z,21.85
2022-12-02T21:28:24.731Z,21.37
2022-12-02T21:30:51.206Z,21.97
2022-12-02T21:33:17.689Z,21.82
2022-12-02T21:35:44.264Z,20.73
2022-12-02T21:38:10.770Z,20.45
2022-12-02T21:40:37.208Z,19.67
2022-12-02T21:43:03.657Z,20.36
2022-12-02T21:45:30.174Z,19.89
2022-12-02T21:47:56.677Z,19.15
2022-12-02T21:50:23.135Z,19.62
2022-12-02T21:52:49.615Z,20.00
2022-12-02T21:55:16.124Z,19.51
2022-12-02T21:57:42.612Z,16.80
2022-12-02T22:00:11.516Z,16.83
2022-12-02T22:02:38.109Z,16.15
2022-12-02T22:05:05.125Z,16.59
2022-12-02T22:07:31.738Z,16.89
2022-12-02T22:09:58.422Z,16.19
2022-12-02T22:12:24.976Z,16.53
2022-12-02T22:14:51.805Z,16.85
2022-12-02T22:17:19.582Z,16.83
2022-12-02T22:19:46.102Z,16.84
2022-12-02T22:22:12.653Z,16.87
2022-12-02T22:24:39.175Z,16.72
2022-12-02T22:27:05.652Z,16.45
2022-12-02T22:29:32.149Z,16.59
2022-12-02T22:31:58.717Z,16.26
2022-12-02T22:34:25.344Z,16.50
2022-12-02T22:36:51.839Z,16.71
2022-12-02T22:39:21.876Z,16.75
2022-12-02T22:41:52.410Z,16.64
2022-12-02T22:44:18.870Z,16.59
2022-12-02T22:46:45.319Z,17.55
2022-12-02T22:49:11.860Z,16.82
2022-12-02T22:51:38.362Z,17.13
2022-12-02T22:54:04.968Z,17.07
2022-12-02T22:56:31.450Z,16.82
2022-12-02T22:58:57.933Z,16.86
2022-12-02T23:01:24.711Z,16.91
2022-12-02T23:03:51.255Z,16.78
2022-12-02T23:06:17.749Z,16.63
2022-12-02T23:08:44.330Z,16.78
2022-12-02T23:11:10.874Z,16.32
2022-12-02T23:13:37.378Z,16.49
2022-12-02T23:16:03.967Z,15.69
2022-12-02T23:18:30.467Z,17.03
2022-12-02T23:20:56.998Z,16.44
2022-12-02T23:23:23.542Z,16.89
2022-12-02T23:25:50.014Z,16.32
2022-12-02T23:28:16.485Z,16.24
2022-12-02T23:30:43.055Z,16.61
2022-12-02T23:33:09.576Z,17.82
2022-12-02T23:35:36.035Z,17.19
2022-12-02T23:38:02.569Z,17.59
2022-12-02T23:40:29.040Z,18.00
2022-12-02T23:42:55.506Z,18.21
2022-12-02T23:45:21.988Z,18.08
2022-12-02T23:47:48.480Z,18.80
2022-12-02T23:50:15.064Z,19.07
2022-12-02T23:52:41.538Z,22.89
2022-12-02T23:55:08.732Z,18.82
2022-12-02T23:57:35.204Z,18.24
